This is the latest recevied weather packets stored in our database for station/object JE9BHE-13. If no packets are shown the sender has not sent any weather packets the latest 10 day(s).
| Time | Temp. | Humidity | Pressure | Rain* | Wind** | Luminosity | Snow |
|---|---|---|---|---|---|---|---|
| 1777360866 | 20.56° C | 70% | 1011.8 hPa | 0 mm | - | - | - |
| 1777360326 | 21.11° C | 67% | 1011.6 hPa | 0 mm | - | - | - |
| 1777359785 | 21.67° C | 67% | 1011.2 hPa | 0 mm | - | - | - |
| 1777359426 | 21.67° C | 68% | 1011.4 hPa | 0 mm | - | - | - |
| 1777357626 | 23.33° C | 64% | 1011.1 hPa | 0 mm | - | - | - |
| 1777355826 | 23.33° C | 62% | 1011.2 hPa | 0 mm | - | - | - |
| 1777354565 | 23.89° C | 62% | 1011 hPa | 0 mm | - | - | - |
| 1777354026 | 23.89° C | 62% | 1011.1 hPa | 0 mm | - | - | - |
| 1777353847 | 23.89° C | 63% | 1011.1 hPa | 0 mm | - | - | - |
| 1777353486 | 23.89° C | 63% | 1011.2 hPa | 0 mm | - | - | - |
| 1777352945 | 24.44° C | 61% | 1011.2 hPa | 0 mm | - | - | - |
| 1777351867 | 25.56° C | 56% | 1010.9 hPa | 0 mm | - | - | - |
| 1777350427 | 25.56° C | 49% | 1011.4 hPa | 0 mm | - | - | - |
| 1777347906 | 24.44° C | 52% | 1011.6 hPa | 0 mm | - | - | - |
| 1777345926 | 25° C | 49% | 1011.7 hPa | 0 mm | - | - | - |
| 1777345567 | 24.44° C | 53% | 1011.7 hPa | 0 mm | - | - | - |
| 1777342506 | 23.33° C | 46% | 1012.2 hPa | 0 mm | - | - | - |
| 1777340705 | 22.22° C | 46% | 1012.8 hPa | 0 mm | - | - | - |
| 1777339806 | 21.67° C | 47% | 1013 hPa | 0 mm | - | - | - |
| 1777338726 | 21.67° C | 49% | 1012.8 hPa | 0 mm | - | - | - |
| 1777338366 | 21.11° C | 50% | 1012.7 hPa | 0 mm | - | - | - |
| 1777337825 | 20.56° C | 50% | 1013.1 hPa | 0 mm | - | - | - |
* Rain latest hour (hover to see other rain measurements)
** Current wind speed in m/s (hover to see current wind gust speed)